sensor_id;sensor_type;location;lat;lon;timestamp;temperature;humidity
75105;DHT22;63688;47.314;8.466;2022-09-27T00:00:57;20.40;65.20
75105;DHT22;63688;47.314;8.466;2022-09-27T00:03:29;20.40;65.20
75105;DHT22;63688;47.314;8.466;2022-09-27T00:06:12;20.40;65.20
75105;DHT22;63688;47.314;8.466;2022-09-27T00:08:50;20.40;65.20
75105;DHT22;63688;47.314;8.466;2022-09-27T00:11:25;20.40;65.20
75105;DHT22;63688;47.314;8.466;2022-09-27T00:13:58;20.40;65.20
75105;DHT22;63688;47.314;8.466;2022-09-27T00:16:32;20.40;65.20
75105;DHT22;63688;47.314;8.466;2022-09-27T00:19:05;20.40;65.10
75105;DHT22;63688;47.314;8.466;2022-09-27T00:21:38;20.40;65.00
75105;DHT22;63688;47.314;8.466;2022-09-27T00:24:19;20.40;65.10
75105;DHT22;63688;47.314;8.466;2022-09-27T00:26:51;20.40;64.90
75105;DHT22;63688;47.314;8.466;2022-09-27T00:29:25;20.40;64.90
75105;DHT22;63688;47.314;8.466;2022-09-27T00:31:56;20.40;64.80
75105;DHT22;63688;47.314;8.466;2022-09-27T00:34:29;20.40;64.80
75105;DHT22;63688;47.314;8.466;2022-09-27T00:37:03;20.40;64.80
75105;DHT22;63688;47.314;8.466;2022-09-27T00:39:41;20.40;64.80
75105;DHT22;63688;47.314;8.466;2022-09-27T00:42:14;20.40;64.80
75105;DHT22;63688;47.314;8.466;2022-09-27T00:45:04;20.40;64.70
75105;DHT22;63688;47.314;8.466;2022-09-27T00:47:41;20.40;64.70
75105;DHT22;63688;47.314;8.466;2022-09-27T00:50:23;20.40;64.70
75105;DHT22;63688;47.314;8.466;2022-09-27T00:53:03;20.40;64.60
75105;DHT22;63688;47.314;8.466;2022-09-27T00:55:49;20.40;65.10
75105;DHT22;63688;47.314;8.466;2022-09-27T00:58:25;20.40;64.60
75105;DHT22;63688;47.314;8.466;2022-09-27T01:01:01;20.40;64.60
75105;DHT22;63688;47.314;8.466;2022-09-27T01:03:36;20.30;64.50
75105;DHT22;63688;47.314;8.466;2022-09-27T01:06:09;20.40;64.50
75105;DHT22;63688;47.314;8.466;2022-09-27T01:08:41;20.30;64.40
75105;DHT22;63688;47.314;8.466;2022-09-27T01:11:30;20.30;64.40
75105;DHT22;63688;47.314;8.466;2022-09-27T01:14:20;20.30;64.40
75105;DHT22;63688;47.314;8.466;2022-09-27T01:16:59;20.30;64.30
75105;DHT22;63688;47.314;8.466;2022-09-27T01:20:03;20.30;64.30
75105;DHT22;63688;47.314;8.466;2022-09-27T01:22:42;20.30;64.30
75105;DHT22;63688;47.314;8.466;2022-09-27T01:25:44;20.30;64.20
75105;DHT22;63688;47.314;8.466;2022-09-27T01:28:33;20.30;64.20
75105;DHT22;63688;47.314;8.466;2022-09-27T01:31:22;20.30;64.20
75105;DHT22;63688;47.314;8.466;2022-09-27T01:34:01;20.30;64.20
75105;DHT22;63688;47.314;8.466;2022-09-27T01:36:41;20.30;64.20
75105;DHT22;63688;47.314;8.466;2022-09-27T01:39:28;20.30;64.20
75105;DHT22;63688;47.314;8.466;2022-09-27T01:42:07;20.30;64.10
75105;DHT22;63688;47.314;8.466;2022-09-27T01:44:44;20.30;64.10
75105;DHT22;63688;47.314;8.466;2022-09-27T01:47:30;20.30;64.10
75105;DHT22;63688;47.314;8.466;2022-09-27T01:50:05;20.30;64.00
75105;DHT22;63688;47.314;8.466;2022-09-27T01:52:41;20.30;64.20
75105;DHT22;63688;47.314;8.466;2022-09-27T01:55:16;20.30;64.10
75105;DHT22;63688;47.314;8.466;2022-09-27T01:57:57;20.30;64.00
75105;DHT22;63688;47.314;8.466;2022-09-27T02:00:29;20.30;64.00
75105;DHT22;63688;47.314;8.466;2022-09-27T02:03:11;20.30;64.00
75105;DHT22;63688;47.314;8.466;2022-09-27T02:05:45;20.30;64.00
75105;DHT22;63688;47.314;8.466;2022-09-27T02:08:20;20.30;64.00
75105;DHT22;63688;47.314;8.466;2022-09-27T02:10:55;20.30;63.90
75105;DHT22;63688;47.314;8.466;2022-09-27T02:13:34;20.30;63.90
75105;DHT22;63688;47.314;8.466;2022-09-27T02:16:16;20.30;64.00
75105;DHT22;63688;47.314;8.466;2022-09-27T02:19:04;20.30;64.00
75105;DHT22;63688;47.314;8.466;2022-09-27T02:21:43;20.30;63.90
75105;DHT22;63688;47.314;8.466;2022-09-27T02:24:21;20.30;63.90
75105;DHT22;63688;47.314;8.466;2022-09-27T02:27:01;20.30;63.90
75105;DHT22;63688;47.314;8.466;2022-09-27T02:29:39;20.30;63.90
75105;DHT22;63688;47.314;8.466;2022-09-27T02:32:13;20.30;63.90
75105;DHT22;63688;47.314;8.466;2022-09-27T02:34:51;20.20;63.80
75105;DHT22;63688;47.314;8.466;2022-09-27T02:37:24;20.20;63.80
75105;DHT22;63688;47.314;8.466;2022-09-27T02:39:57;20.20;63.70
75105;DHT22;63688;47.314;8.466;2022-09-27T02:42:29;20.20;63.70
75105;DHT22;63688;47.314;8.466;2022-09-27T02:45:04;20.20;63.70
75105;DHT22;63688;47.314;8.466;2022-09-27T02:47:49;20.20;63.70
75105;DHT22;63688;47.314;8.466;2022-09-27T02:50:50;20.30;63.80
75105;DHT22;63688;47.314;8.466;2022-09-27T02:53:35;20.20;63.70
75105;DHT22;63688;47.314;8.466;2022-09-27T02:56:23;20.30;63.70
75105;DHT22;63688;47.314;8.466;2022-09-27T02:58:57;20.20;63.60
75105;DHT22;63688;47.314;8.466;2022-09-27T03:01:36;20.30;63.70
75105;DHT22;63688;47.314;8.466;2022-09-27T03:04:12;20.20;63.60
75105;DHT22;63688;47.314;8.466;2022-09-27T03:06:59;20.30;63.60
75105;DHT22;63688;47.314;8.466;2022-09-27T03:09:40;20.20;63.60
75105;DHT22;63688;47.314;8.466;2022-09-27T03:12:13;20.20;63.60
75105;DHT22;63688;47.314;8.466;2022-09-27T03:14:47;20.30;63.60
75105;DHT22;63688;47.314;8.466;2022-09-27T03:17:25;20.30;63.60
75105;DHT22;63688;47.314;8.466;2022-09-27T03:19:56;20.20;63.50
75105;DHT22;63688;47.314;8.466;2022-09-27T03:22:34;20.30;63.50
75105;DHT22;63688;47.314;8.466;2022-09-27T03:25:06;20.30;63.50
75105;DHT22;63688;47.314;8.466;2022-09-27T03:27:39;20.30;63.40
75105;DHT22;63688;47.314;8.466;2022-09-27T03:30:12;20.30;63.30
75105;DHT22;63688;47.314;8.466;2022-09-27T03:32:45;20.30;63.30
75105;DHT22;63688;47.314;8.466;2022-09-27T03:35:16;20.30;63.30
75105;DHT22;63688;47.314;8.466;2022-09-27T03:38:04;20.30;63.30
75105;DHT22;63688;47.314;8.466;2022-09-27T03:40:37;20.30;63.30
75105;DHT22;63688;47.314;8.466;2022-09-27T03:43:09;20.30;63.30
75105;DHT22;63688;47.314;8.466;2022-09-27T03:45:42;20.30;63.30
75105;DHT22;63688;47.314;8.466;2022-09-27T03:48:15;20.30;63.20
75105;DHT22;63688;47.314;8.466;2022-09-27T03:50:46;20.30;63.20
75105;DHT22;63688;47.314;8.466;2022-09-27T03:53:23;20.20;63.10
75105;DHT22;63688;47.314;8.466;2022-09-27T03:55:54;20.30;63.20
75105;DHT22;63688;47.314;8.466;2022-09-27T03:58:26;20.20;63.10
75105;DHT22;63688;47.314;8.466;2022-09-27T04:00:57;20.30;63.20
75105;DHT22;63688;47.314;8.466;2022-09-27T04:03:30;20.30;63.20
75105;DHT22;63688;47.314;8.466;2022-09-27T04:06:02;20.20;63.10
75105;DHT22;63688;47.314;8.466;2022-09-27T04:08:42;20.20;63.10
75105;DHT22;63688;47.314;8.466;2022-09-27T04:11:13;20.30;63.10
75105;DHT22;63688;47.314;8.466;2022-09-27T04:13:45;20.20;63.10
75105;DHT22;63688;47.314;8.466;2022-09-27T04:16:17;20.20;63.10
75105;DHT22;63688;47.314;8.466;2022-09-27T04:18:49;20.20;63.10
75105;DHT22;63688;47.314;8.466;2022-09-27T04:21:21;20.20;63.00
75105;DHT22;63688;47.314;8.466;2022-09-27T04:24:00;20.20;63.00
75105;DHT22;63688;47.314;8.466;2022-09-27T04:26:31;20.20;63.00
75105;DHT22;63688;47.314;8.466;2022-09-27T04:29:03;20.20;63.00
75105;DHT22;63688;47.314;8.466;2022-09-27T04:31:35;20.20;63.00
75105;DHT22;63688;47.314;8.466;2022-09-27T04:34:12;20.20;63.00
75105;DHT22;63688;47.314;8.466;2022-09-27T04:37:04;20.20;63.10
75105;DHT22;63688;47.314;8.466;2022-09-27T04:39:46;20.20;63.00
75105;DHT22;63688;47.314;8.466;2022-09-27T04:42:18;20.20;63.00
75105;DHT22;63688;47.314;8.466;2022-09-27T04:44:52;20.20;63.00
75105;DHT22;63688;47.314;8.466;2022-09-27T04:47:23;20.20;63.00
75105;DHT22;63688;47.314;8.466;2022-09-27T04:49:55;20.20;63.00
75105;DHT22;63688;47.314;8.466;2022-09-27T04:52:27;20.20;63.00
75105;DHT22;63688;47.314;8.466;2022-09-27T04:55:04;20.20;63.00
75105;DHT22;63688;47.314;8.466;2022-09-27T04:57:36;20.20;63.00
75105;DHT22;63688;47.314;8.466;2022-09-27T05:00:09;20.20;63.00
75105;DHT22;63688;47.314;8.466;2022-09-27T05:02:43;20.20;63.00
75105;DHT22;63688;47.314;8.466;2022-09-27T05:05:15;20.20;63.00
75105;DHT22;63688;47.314;8.466;2022-09-27T05:07:46;20.20;62.90
75105;DHT22;63688;47.314;8.466;2022-09-27T05:10:23;20.20;62.90
75105;DHT22;63688;47.314;8.466;2022-09-27T05:12:54;20.20;62.90
75105;DHT22;63688;47.314;8.466;2022-09-27T05:18:41;20.20;62.90
75105;DHT22;63688;47.314;8.466;2022-09-27T05:21:19;20.20;62.80
75105;DHT22;63688;47.314;8.466;2022-09-27T05:23:51;20.20;62.80
75105;DHT22;63688;47.314;8.466;2022-09-27T05:26:39;20.20;62.80
75105;DHT22;63688;47.314;8.466;2022-09-27T05:40:31;20.20;62.90
75105;DHT22;63688;47.314;8.466;2022-09-27T05:43:15;20.20;62.80
75105;DHT22;63688;47.314;8.466;2022-09-27T05:45:54;20.20;62.80
75105;DHT22;63688;47.314;8.466;2022-09-27T05:48:26;20.20;62.70
75105;DHT22;63688;47.314;8.466;2022-09-27T05:50:58;20.10;62.60
75105;DHT22;63688;47.314;8.466;2022-09-27T05:53:32;20.20;62.70
75105;DHT22;63688;47.314;8.466;2022-09-27T05:56:18;20.20;62.60
75105;DHT22;63688;47.314;8.466;2022-09-27T05:58:55;20.10;62.60
75105;DHT22;63688;47.314;8.466;2022-09-27T06:01:34;20.10;62.50
75105;DHT22;63688;47.314;8.466;2022-09-27T06:04:06;20.20;63.00
75105;DHT22;63688;47.314;8.466;2022-09-27T06:06:38;20.20;62.50
75105;DHT22;63688;47.314;8.466;2022-09-27T06:09:10;20.20;62.50
75105;DHT22;63688;47.314;8.466;2022-09-27T06:11:43;20.10;62.40
75105;DHT22;63688;47.314;8.466;2022-09-27T06:14:22;20.20;62.40
75105;DHT22;63688;47.314;8.466;2022-09-27T06:16:55;20.20;62.40
75105;DHT22;63688;47.314;8.466;2022-09-27T06:19:27;20.20;62.30
75105;DHT22;63688;47.314;8.466;2022-09-27T06:21:59;20.20;62.30
75105;DHT22;63688;47.314;8.466;2022-09-27T06:24:31;20.20;62.30
75105;DHT22;63688;47.314;8.466;2022-09-27T06:27:02;20.10;62.20
75105;DHT22;63688;47.314;8.466;2022-09-27T06:29:40;20.10;62.20
75105;DHT22;63688;47.314;8.466;2022-09-27T06:32:11;20.10;62.10
75105;DHT22;63688;47.314;8.466;2022-09-27T06:34:53;20.20;62.10
75105;DHT22;63688;47.314;8.466;2022-09-27T06:37:25;20.10;62.40
75105;DHT22;63688;47.314;8.466;2022-09-27T06:39:57;20.20;61.90
75105;DHT22;63688;47.314;8.466;2022-09-27T06:42:28;20.10;61.80
75105;DHT22;63688;47.314;8.466;2022-09-27T06:45:06;20.20;61.80
75105;DHT22;63688;47.314;8.466;2022-09-27T06:47:43;20.20;61.70
75105;DHT22;63688;47.314;8.466;2022-09-27T06:50:15;20.20;61.90
75105;DHT22;63688;47.314;8.466;2022-09-27T06:53:13;20.20;61.80
75105;DHT22;63688;47.314;8.466;2022-09-27T06:55:57;20.10;61.70
75105;DHT22;63688;47.314;8.466;2022-09-27T06:58:30;20.10;61.60
75105;DHT22;63688;47.314;8.466;2022-09-27T07:01:17;20.10;61.60
75105;DHT22;63688;47.314;8.466;2022-09-27T07:03:51;20.20;61.60
75105;DHT22;63688;47.314;8.466;2022-09-27T07:06:24;20.10;61.70
75105;DHT22;63688;47.314;8.466;2022-09-27T07:08:56;20.10;61.70
75105;DHT22;63688;47.314;8.466;2022-09-27T07:11:28;20.10;61.70
75105;DHT22;63688;47.314;8.466;2022-09-27T07:14:01;20.10;61.70
75105;DHT22;63688;47.314;8.466;2022-09-27T07:16:38;20.10;61.60
75105;DHT22;63688;47.314;8.466;2022-09-27T07:19:09;20.10;61.60
75105;DHT22;63688;47.314;8.466;2022-09-27T07:21:43;20.20;61.60
75105;DHT22;63688;47.314;8.466;2022-09-27T07:24:23;20.20;62.30
75105;DHT22;63688;47.314;8.466;2022-09-27T07:26:56;20.20;61.80
75105;DHT22;63688;47.314;8.466;2022-09-27T07:29:27;20.20;61.90
75105;DHT22;63688;47.314;8.466;2022-09-27T07:32:06;20.20;61.80
75105;DHT22;63688;47.314;8.466;2022-09-27T07:34:46;20.30;61.90
75105;DHT22;63688;47.314;8.466;2022-09-27T07:37:17;20.20;61.70
75105;DHT22;63688;47.314;8.466;2022-09-27T07:39:49;20.20;61.20
75105;DHT22;63688;47.314;8.466;2022-09-27T07:42:21;20.30;60.90
75105;DHT22;63688;47.314;8.466;2022-09-27T07:44:53;20.30;61.80
75105;DHT22;63688;47.314;8.466;2022-09-27T07:47:30;20.30;61.60
75105;DHT22;63688;47.314;8.466;2022-09-27T07:50:03;20.30;61.50
75105;DHT22;63688;47.314;8.466;2022-09-27T07:52:38;20.30;61.30
75105;DHT22;63688;47.314;8.466;2022-09-27T07:55:12;20.30;61.10
75105;DHT22;63688;47.314;8.466;2022-09-27T07:57:44;20.40;60.90
75105;DHT22;63688;47.314;8.466;2022-09-27T08:00:19;20.40;60.70
75105;DHT22;63688;47.314;8.466;2022-09-27T08:02:56;20.40;60.50
75105;DHT22;63688;47.314;8.466;2022-09-27T08:05:28;20.40;60.50
75105;DHT22;63688;47.314;8.466;2022-09-27T08:08:00;20.40;60.50
75105;DHT22;63688;47.314;8.466;2022-09-27T08:10:32;20.40;60.40
75105;DHT22;63688;47.314;8.466;2022-09-27T08:13:09;20.40;60.40
75105;DHT22;63688;47.314;8.466;2022-09-27T08:15:42;20.40;60.40
75105;DHT22;63688;47.314;8.466;2022-09-27T08:18:19;20.40;60.40
75105;DHT22;63688;47.314;8.466;2022-09-27T08:20:55;20.40;60.40
75105;DHT22;63688;47.314;8.466;2022-09-27T08:23:27;20.40;60.50
75105;DHT22;63688;47.314;8.466;2022-09-27T08:25:59;20.40;60.40
75105;DHT22;63688;47.314;8.466;2022-09-27T08:28:30;20.40;60.40
75105;DHT22;63688;47.314;8.466;2022-09-27T08:31:02;20.40;60.40
75105;DHT22;63688;47.314;8.466;2022-09-27T08:33:39;20.40;60.40
75105;DHT22;63688;47.314;8.466;2022-09-27T08:36:10;20.40;60.30
75105;DHT22;63688;47.314;8.466;2022-09-27T08:38:42;20.40;60.30
75105;DHT22;63688;47.314;8.466;2022-09-27T08:41:22;20.40;61.00
75105;DHT22;63688;47.314;8.466;2022-09-27T08:44:14;20.50;60.60
75105;DHT22;63688;47.314;8.466;2022-09-27T08:46:52;20.40;60.50
75105;DHT22;63688;47.314;8.466;2022-09-27T08:49:35;20.50;60.60
75105;DHT22;63688;47.314;8.466;2022-09-27T08:52:13;20.50;60.50
75105;DHT22;63688;47.314;8.466;2022-09-27T08:54:49;20.60;62.40
75105;DHT22;63688;47.314;8.466;2022-09-27T08:57:23;20.60;66.10
75105;DHT22;63688;47.314;8.466;2022-09-27T09:00:02;20.60;65.70
75105;DHT22;63688;47.314;8.466;2022-09-27T09:02:35;20.60;66.90
75105;DHT22;63688;47.314;8.466;2022-09-27T09:05:16;20.60;64.30
75105;DHT22;63688;47.314;8.466;2022-09-27T09:08:04;20.60;64.50
75105;DHT22;63688;47.314;8.466;2022-09-27T09:10:48;20.60;63.90
75105;DHT22;63688;47.314;8.466;2022-09-27T09:13:51;20.60;63.80
75105;DHT22;63688;47.314;8.466;2022-09-27T09:16:34;20.70;63.50
75105;DHT22;63688;47.314;8.466;2022-09-27T09:19:32;20.70;63.50
75105;DHT22;63688;47.314;8.466;2022-09-27T09:22:28;20.70;63.70
75105;DHT22;63688;47.314;8.466;2022-09-27T09:25:16;20.70;63.70
75105;DHT22;63688;47.314;8.466;2022-09-27T09:28:02;20.60;64.00
75105;DHT22;63688;47.314;8.466;2022-09-27T09:30:44;20.60;63.50
75105;DHT22;63688;47.314;8.466;2022-09-27T09:33:24;20.60;63.40
75105;DHT22;63688;47.314;8.466;2022-09-27T09:36:00;20.60;63.30
75105;DHT22;63688;47.314;8.466;2022-09-27T09:38:42;20.60;63.30
75105;DHT22;63688;47.314;8.466;2022-09-27T09:41:25;20.60;63.20
75105;DHT22;63688;47.314;8.466;2022-09-27T09:44:01;20.60;63.20
75105;DHT22;63688;47.314;8.466;2022-09-27T09:46:35;20.60;63.20
75105;DHT22;63688;47.314;8.466;2022-09-27T09:49:15;20.50;63.00
75105;DHT22;63688;47.314;8.466;2022-09-27T09:51:51;20.60;63.00
75105;DHT22;63688;47.314;8.466;2022-09-27T09:54:31;20.50;63.00
75105;DHT22;63688;47.314;8.466;2022-09-27T09:57:11;20.50;63.00
75105;DHT22;63688;47.314;8.466;2022-09-27T09:59:47;20.50;62.90
75105;DHT22;63688;47.314;8.466;2022-09-27T10:02:27;20.50;62.70
75105;DHT22;63688;47.314;8.466;2022-09-27T10:04:59;20.50;62.70
75105;DHT22;63688;47.314;8.466;2022-09-27T10:07:33;20.50;62.70
75105;DHT22;63688;47.314;8.466;2022-09-27T10:10:14;20.50;62.70
75105;DHT22;63688;47.314;8.466;2022-09-27T10:12:46;20.50;62.60
75105;DHT22;63688;47.314;8.466;2022-09-27T10:15:28;20.50;62.50
75105;DHT22;63688;47.314;8.466;2022-09-27T10:18:01;20.50;62.50
75105;DHT22;63688;47.314;8.466;2022-09-27T10:20:35;20.50;62.40
75105;DHT22;63688;47.314;8.466;2022-09-27T10:23:17;20.50;62.20
75105;DHT22;63688;47.314;8.466;2022-09-27T10:25:56;20.50;62.20
75105;DHT22;63688;47.314;8.466;2022-09-27T10:28:31;20.60;62.30
75105;DHT22;63688;47.314;8.466;2022-09-27T10:31:04;20.50;62.10
75105;DHT22;63688;47.314;8.466;2022-09-27T10:33:39;20.50;62.20
75105;DHT22;63688;47.314;8.466;2022-09-27T10:36:23;20.50;62.20
75105;DHT22;63688;47.314;8.466;2022-09-27T10:38:57;20.50;62.20
75105;DHT22;63688;47.314;8.466;2022-09-27T10:41:37;20.40;62.20
75105;DHT22;63688;47.314;8.466;2022-09-27T10:44:23;20.40;62.20
75105;DHT22;63688;47.314;8.466;2022-09-27T10:46:57;20.40;62.20
75105;DHT22;63688;47.314;8.466;2022-09-27T10:49:32;20.40;62.60
75105;DHT22;63688;47.314;8.466;2022-09-27T10:52:06;20.50;62.10
75105;DHT22;63688;47.314;8.466;2022-09-27T10:54:40;20.40;61.90
75105;DHT22;63688;47.314;8.466;2022-09-27T10:57:22;20.50;61.80
75105;DHT22;63688;47.314;8.466;2022-09-27T10:59:56;20.50;61.80
75105;DHT22;63688;47.314;8.466;2022-09-27T11:02:30;20.50;61.80
75105;DHT22;63688;47.314;8.466;2022-09-27T11:05:08;20.50;61.80
75105;DHT22;63688;47.314;8.466;2022-09-27T11:07:50;20.50;61.80
75105;DHT22;63688;47.314;8.466;2022-09-27T11:10:23;20.50;61.80
75105;DHT22;63688;47.314;8.466;2022-09-27T11:13:11;20.40;61.70
75105;DHT22;63688;47.314;8.466;2022-09-27T11:16:10;20.40;61.80
75105;DHT22;63688;47.314;8.466;2022-09-27T11:18:51;20.40;61.80
75105;DHT22;63688;47.314;8.466;2022-09-27T11:21:32;20.40;61.70
75105;DHT22;63688;47.314;8.466;2022-09-27T11:24:33;20.40;62.10
75105;DHT22;63688;47.314;8.466;2022-09-27T11:27:17;20.40;61.50
75105;DHT22;63688;47.314;8.466;2022-09-27T11:30:03;20.40;61.50
75105;DHT22;63688;47.314;8.466;2022-09-27T11:32:56;20.50;61.70
75105;DHT22;63688;47.314;8.466;2022-09-27T11:35:43;20.50;62.20
75105;DHT22;63688;47.314;8.466;2022-09-27T11:38:24;20.50;62.10
75105;DHT22;63688;47.314;8.466;2022-09-27T11:41:07;20.50;61.80
75105;DHT22;63688;47.314;8.466;2022-09-27T11:46:59;20.60;62.40
75105;DHT22;63688;47.314;8.466;2022-09-27T11:49:57;20.60;62.90
75105;DHT22;63688;47.314;8.466;2022-09-27T11:52:46;20.60;62.50
75105;DHT22;63688;47.314;8.466;2022-09-27T11:55:30;20.70;62.60
75105;DHT22;63688;47.314;8.466;2022-09-27T11:58:12;20.60;62.60
75105;DHT22;63688;47.314;8.466;2022-09-27T12:01:01;20.70;62.70
75105;DHT22;63688;47.314;8.466;2022-09-27T12:04:07;20.60;62.50
75105;DHT22;63688;47.314;8.466;2022-09-27T12:06:49;20.60;62.50
75105;DHT22;63688;47.314;8.466;2022-09-27T12:09:23;20.60;62.50
75105;DHT22;63688;47.314;8.466;2022-09-27T12:12:03;20.60;62.50
75105;DHT22;63688;47.314;8.466;2022-09-27T12:14:39;20.60;62.40
75105;DHT22;63688;47.314;8.466;2022-09-27T12:17:15;20.60;62.30
75105;DHT22;63688;47.314;8.466;2022-09-27T12:19:55;20.50;62.20
75105;DHT22;63688;47.314;8.466;2022-09-27T12:22:30;20.50;62.40
75105;DHT22;63688;47.314;8.466;2022-09-27T12:25:11;20.50;62.50
75105;DHT22;63688;47.314;8.466;2022-09-27T12:27:48;20.50;62.30
75105;DHT22;63688;47.314;8.466;2022-09-27T12:30:20;20.50;62.00
75105;DHT22;63688;47.314;8.466;2022-09-27T12:33:08;20.50;61.60
75105;DHT22;63688;47.314;8.466;2022-09-27T12:35:51;20.50;61.70
75105;DHT22;63688;47.314;8.466;2022-09-27T12:38:30;20.60;61.70
75105;DHT22;63688;47.314;8.466;2022-09-27T12:41:04;20.50;61.70
75105;DHT22;63688;47.314;8.466;2022-09-27T12:43:43;20.60;61.80
75105;DHT22;63688;47.314;8.466;2022-09-27T12:46:25;20.50;61.80
75105;DHT22;63688;47.314;8.466;2022-09-27T12:49:05;20.60;61.90
75105;DHT22;63688;47.314;8.466;2022-09-27T12:51:50;20.60;61.90
75105;DHT22;63688;47.314;8.466;2022-09-27T12:54:47;20.50;61.90
75105;DHT22;63688;47.314;8.466;2022-09-27T12:57:29;20.50;61.90
75105;DHT22;63688;47.314;8.466;2022-09-27T13:00:09;20.50;61.90
75105;DHT22;63688;47.314;8.466;2022-09-27T13:03:00;20.50;61.80
75105;DHT22;63688;47.314;8.466;2022-09-27T13:11:56;20.50;61.70
75105;DHT22;63688;47.314;8.466;2022-09-27T13:14:39;20.50;61.70
75105;DHT22;63688;47.314;8.466;2022-09-27T13:17:31;20.50;61.60
75105;DHT22;63688;47.314;8.466;2022-09-27T13:20:39;20.50;61.60
75105;DHT22;63688;47.314;8.466;2022-09-27T13:23:52;20.50;61.50
75105;DHT22;63688;47.314;8.466;2022-09-27T13:26:46;20.50;61.50
75105;DHT22;63688;47.314;8.466;2022-09-27T13:29:25;20.50;61.60
75105;DHT22;63688;47.314;8.466;2022-09-27T13:32:18;20.50;61.50
75105;DHT22;63688;47.314;8.466;2022-09-27T13:34:53;20.50;61.40
75105;DHT22;63688;47.314;8.466;2022-09-27T13:37:45;20.50;61.40
75105;DHT22;63688;47.314;8.466;2022-09-27T13:40:30;20.50;61.40
75105;DHT22;63688;47.314;8.466;2022-09-27T13:46:16;20.50;61.30
75105;DHT22;63688;47.314;8.466;2022-09-27T13:48:53;20.50;61.20
75105;DHT22;63688;47.314;8.466;2022-09-27T13:51:34;20.50;61.20
75105;DHT22;63688;47.314;8.466;2022-09-27T13:54:37;20.50;61.10
75105;DHT22;63688;47.314;8.466;2022-09-27T14:00:18;20.50;61.20
75105;DHT22;63688;47.314;8.466;2022-09-27T14:03:00;20.40;61.20
75105;DHT22;63688;47.314;8.466;2022-09-27T14:05:35;20.40;61.30
75105;DHT22;63688;47.314;8.466;2022-09-27T14:08:18;20.40;61.20
75105;DHT22;63688;47.314;8.466;2022-09-27T14:10:51;20.40;61.30
75105;DHT22;63688;47.314;8.466;2022-09-27T14:16:35;20.40;61.30
75105;DHT22;63688;47.314;8.466;2022-09-27T14:19:19;20.30;61.30
75105;DHT22;63688;47.314;8.466;2022-09-27T14:22:11;20.30;61.30
75105;DHT22;63688;47.314;8.466;2022-09-27T14:24:45;20.30;61.30
75105;DHT22;63688;47.314;8.466;2022-09-27T14:27:19;20.30;61.70
75105;DHT22;63688;47.314;8.466;2022-09-27T14:29:53;20.30;61.20
75105;DHT22;63688;47.314;8.466;2022-09-27T14:35:30;20.30;61.10
75105;DHT22;63688;47.314;8.466;2022-09-27T14:38:14;20.30;61.20
75105;DHT22;63688;47.314;8.466;2022-09-27T14:40:56;20.30;61.20
75105;DHT22;63688;47.314;8.466;2022-09-27T14:43:29;20.30;61.20
75105;DHT22;63688;47.314;8.466;2022-09-27T14:46:05;20.30;61.20
75105;DHT22;63688;47.314;8.466;2022-09-27T14:48:41;20.30;61.10
75105;DHT22;63688;47.314;8.466;2022-09-27T14:54:29;20.30;61.20
75105;DHT22;63688;47.314;8.466;2022-09-27T14:57:00;20.30;61.20
75105;DHT22;63688;47.314;8.466;2022-09-27T15:02:43;20.30;61.20
75105;DHT22;63688;47.314;8.466;2022-09-27T15:05:17;20.20;61.20
75105;DHT22;63688;47.314;8.466;2022-09-27T15:07:50;20.20;61.50
75105;DHT22;63688;47.314;8.466;2022-09-27T15:10:47;20.30;61.10
75105;DHT22;63688;47.314;8.466;2022-09-27T15:13:19;20.20;61.00
75105;DHT22;63688;47.314;8.466;2022-09-27T15:15:53;20.30;61.00
75105;DHT22;63688;47.314;8.466;2022-09-27T15:18:38;20.20;61.00
75105;DHT22;63688;47.314;8.466;2022-09-27T15:21:28;20.20;61.00
75105;DHT22;63688;47.314;8.466;2022-09-27T15:24:37;20.20;60.80
75105;DHT22;63688;47.314;8.466;2022-09-27T15:27:29;20.30;60.80
75105;DHT22;63688;47.314;8.466;2022-09-27T15:30:15;20.20;60.60
75105;DHT22;63688;47.314;8.466;2022-09-27T15:32:53;20.30;60.80
75105;DHT22;63688;47.314;8.466;2022-09-27T15:35:28;20.20;60.70
75105;DHT22;63688;47.314;8.466;2022-09-27T15:38:26;20.20;60.80
75105;DHT22;63688;47.314;8.466;2022-09-27T15:41:07;20.20;60.70
75105;DHT22;63688;47.314;8.466;2022-09-27T15:43:46;20.20;60.70
75105;DHT22;63688;47.314;8.466;2022-09-27T15:46:33;20.20;60.70
75105;DHT22;63688;47.314;8.466;2022-09-27T15:49:25;20.20;60.70
75105;DHT22;63688;47.314;8.466;2022-09-27T15:52:05;20.10;60.60
75105;DHT22;63688;47.314;8.466;2022-09-27T15:54:37;20.10;60.60
75105;DHT22;63688;47.314;8.466;2022-09-27T15:57:10;20.10;60.70
75105;DHT22;63688;47.314;8.466;2022-09-27T15:59:47;20.10;60.60
75105;DHT22;63688;47.314;8.466;2022-09-27T16:02:19;20.10;60.60
75105;DHT22;63688;47.314;8.466;2022-09-27T16:04:50;20.10;60.60
75105;DHT22;63688;47.314;8.466;2022-09-27T16:07:30;20.10;60.60
75105;DHT22;63688;47.314;8.466;2022-09-27T16:10:10;20.10;60.70
75105;DHT22;63688;47.314;8.466;2022-09-27T16:12:59;20.10;60.60
75105;DHT22;63688;47.314;8.466;2022-09-27T16:15:36;20.10;60.70
75105;DHT22;63688;47.314;8.466;2022-09-27T16:18:08;20.10;60.60
75105;DHT22;63688;47.314;8.466;2022-09-27T16:21:01;20.10;60.60
75105;DHT22;63688;47.314;8.466;2022-09-27T16:23:33;20.10;60.50
75105;DHT22;63688;47.314;8.466;2022-09-27T16:26:05;20.10;60.50
75105;DHT22;63688;47.314;8.466;2022-09-27T16:28:38;20.10;60.40
75105;DHT22;63688;47.314;8.466;2022-09-27T16:39:06;20.10;60.50
75105;DHT22;63688;47.314;8.466;2022-09-27T16:41:38;20.10;60.50
75105;DHT22;63688;47.314;8.466;2022-09-27T16:44:12;20.00;60.50
75105;DHT22;63688;47.314;8.466;2022-09-27T16:46:44;20.00;60.50
75105;DHT22;63688;47.314;8.466;2022-09-27T16:49:17;20.00;60.60
75105;DHT22;63688;47.314;8.466;2022-09-27T16:51:58;20.00;60.70
75105;DHT22;63688;47.314;8.466;2022-09-27T16:54:36;20.00;60.80
75105;DHT22;63688;47.314;8.466;2022-09-27T16:57:07;20.00;60.90
75105;DHT22;63688;47.314;8.466;2022-09-27T16:59:46;19.90;60.90
75105;DHT22;63688;47.314;8.466;2022-09-27T17:02:20;19.90;61.00
75105;DHT22;63688;47.314;8.466;2022-09-27T17:04:53;19.90;61.00
75105;DHT22;63688;47.314;8.466;2022-09-27T17:07:25;19.90;61.00
75105;DHT22;63688;47.314;8.466;2022-09-27T17:13:13;19.90;61.20
75105;DHT22;63688;47.314;8.466;2022-09-27T17:15:50;19.90;61.20
75105;DHT22;63688;47.314;8.466;2022-09-27T17:18:41;19.90;61.30
75105;DHT22;63688;47.314;8.466;2022-09-27T17:24:36;19.90;61.30
75105;DHT22;63688;47.314;8.466;2022-09-27T17:27:09;19.90;61.40
75105;DHT22;63688;47.314;8.466;2022-09-27T17:29:46;20.00;61.30
75105;DHT22;63688;47.314;8.466;2022-09-27T17:32:18;19.90;61.30
75105;DHT22;63688;47.314;8.466;2022-09-27T17:35:00;20.00;61.30
75105;DHT22;63688;47.314;8.466;2022-09-27T17:37:32;20.00;61.20